aviador You're here:

UUEE Decoded Metar

MOSCOW/SHEREMETYEVO in RUSSIA
Report Time2017-07-21 02:30:00
UTC Time2017-07-21 02:54:35
Flight Rules vfr VFR
Wind290° at 6 kt
W.Decomp.*RWY 25: 5.2 kt HW 3.0 kt RCW
W.Rank290° ranks 9
Current wind is below 290° avg. (9.1)
Visibility9999 m
Phenomena:Light Thuderstorm Rain
thunderstorm
Clouds:Few CB 050 Hf
Expected CloudBase > 800 ft AGL from Temp-Dew spread
CeilingNone
Temp14°C (ISA 0)
Dew Point12°C (88% RH)
AAT12.5°C
QNH1013 hPa
Density Alt843 ft
Elevation623 ft
Report Wrong Elevation
Raw Report
UUEE 210230Z 29003MPS 9999 TS FEW050CB 14/12 Q1013 R24L/CLRD62
TEMPO -TSRA SCT010CB=

Extra information for UUEE:More info

Metar Taf Metar & Taf Last 4 Metars F.Rules Stats Wind Profile Meteogram Temp Stats Airport Information Weather charts Add Link Nearby VenuesMetar ALERT Operation Metar Decoded Social comments